createdAt,value
2017-11-15T00:00:52.066Z,6.00
2017-11-15T00:03:20.343Z,5.80
2017-11-15T00:05:48.646Z,5.80
2017-11-15T00:08:16.894Z,5.80
2017-11-15T00:10:45.239Z,5.70
2017-11-15T00:13:13.569Z,5.80
2017-11-15T00:15:41.836Z,5.70
2017-11-15T00:18:10.205Z,5.80
2017-11-15T00:20:38.540Z,5.80
2017-11-15T00:23:06.840Z,5.80
2017-11-15T00:25:35.135Z,5.80
2017-11-15T00:28:03.501Z,5.80
2017-11-15T00:30:31.929Z,5.80
2017-11-15T00:33:00.984Z,5.80
2017-11-15T00:35:29.323Z,5.80
2017-11-15T00:37:57.580Z,5.80
2017-11-15T00:40:26.634Z,5.80
2017-11-15T00:42:54.968Z,5.80
2017-11-15T00:45:23.258Z,5.80
2017-11-15T00:47:51.535Z,5.80
2017-11-15T00:50:19.864Z,5.70
2017-11-15T00:52:48.124Z,5.80
2017-11-15T00:55:16.394Z,5.80
2017-11-15T00:57:44.692Z,5.80
2017-11-15T01:00:12.945Z,5.80
2017-11-15T01:02:41.234Z,5.90
2017-11-15T01:05:09.565Z,6.00
2017-11-15T01:07:37.839Z,5.80
2017-11-15T01:10:06.936Z,5.70
2017-11-15T01:12:35.237Z,5.70
2017-11-15T01:15:03.511Z,5.70
2017-11-15T01:17:31.787Z,5.60
2017-11-15T01:20:00.425Z,5.60
2017-11-15T01:22:28.737Z,5.60
2017-11-15T01:24:57.006Z,5.60
2017-11-15T01:27:25.301Z,5.60
2017-11-15T01:29:53.584Z,5.70
2017-11-15T01:32:21.922Z,5.70
2017-11-15T01:34:50.237Z,5.70
2017-11-15T01:37:18.516Z,5.70
2017-11-15T01:39:46.811Z,5.70
2017-11-15T01:42:15.107Z,5.70
2017-11-15T01:44:44.153Z,5.60
2017-11-15T01:47:12.409Z,5.60
2017-11-15T01:49:40.705Z,5.60
2017-11-15T01:52:08.969Z,5.60
2017-11-15T01:54:37.239Z,5.60
2017-11-15T01:57:05.560Z,5.70
2017-11-15T01:59:33.907Z,5.70
2017-11-15T02:02:02.234Z,5.70
2017-11-15T02:04:30.599Z,5.70
2017-11-15T02:06:58.924Z,5.70
2017-11-15T02:09:27.231Z,5.60
2017-11-15T02:11:55.539Z,5.60
2017-11-15T02:14:24.644Z,5.50
2017-11-15T02:16:52.936Z,5.50
2017-11-15T02:19:21.227Z,5.60
2017-11-15T02:21:49.524Z,5.60
2017-11-15T02:24:17.792Z,5.60
2017-11-15T02:26:46.082Z,5.60
2017-11-15T02:29:14.382Z,5.70
2017-11-15T02:31:43.443Z,5.60
2017-11-15T02:34:11.742Z,5.60
2017-11-15T02:36:39.977Z,5.60
2017-11-15T02:39:08.218Z,5.60
2017-11-15T02:41:36.536Z,5.70
2017-11-15T02:44:04.802Z,5.70
2017-11-15T02:46:33.161Z,5.70
2017-11-15T02:49:01.570Z,5.80
2017-11-15T02:51:29.865Z,5.70
2017-11-15T02:53:58.140Z,5.70
2017-11-15T02:56:26.500Z,5.70
2017-11-15T02:58:54.792Z,5.70
2017-11-15T03:01:23.035Z,5.70
2017-11-15T03:03:51.312Z,5.70
2017-11-15T03:06:20.422Z,5.70
2017-11-15T03:08:48.744Z,5.70
2017-11-15T03:11:17.086Z,5.70
2017-11-15T03:13:45.561Z,5.70
2017-11-15T03:16:13.813Z,5.60
2017-11-15T03:18:42.086Z,5.60
2017-11-15T03:21:15.293Z,5.60
2017-11-15T03:23:43.588Z,5.60
2017-11-15T03:26:11.896Z,5.60
2017-11-15T03:28:40.986Z,5.50
2017-11-15T03:31:09.311Z,5.50
2017-11-15T03:33:37.587Z,5.50
2017-11-15T03:36:05.969Z,5.50
2017-11-15T03:38:34.236Z,5.40
2017-11-15T03:41:02.481Z,5.40
2017-11-15T03:43:31.583Z,5.50
2017-11-15T03:45:59.832Z,5.40
2017-11-15T03:48:28.111Z,5.50
2017-11-15T03:50:56.460Z,5.50
2017-11-15T03:53:24.725Z,5.50
2017-11-15T03:55:53.053Z,5.50
2017-11-15T03:58:21.511Z,5.40
2017-11-15T04:00:49.793Z,5.50
2017-11-15T04:03:18.074Z,5.50
2017-11-15T04:05:46.535Z,5.50
2017-11-15T04:08:15.718Z,5.40
2017-11-15T04:10:44.045Z,5.40
2017-11-15T04:13:13.153Z,5.50
2017-11-15T04:15:41.394Z,5.50
2017-11-15T04:18:10.405Z,5.50
2017-11-15T04:20:39.465Z,5.60
2017-11-15T04:23:07.769Z,5.50
2017-11-15T04:25:36.047Z,5.50
2017-11-15T04:28:05.123Z,5.50
2017-11-15T04:30:34.220Z,5.50
2017-11-15T04:33:03.265Z,5.60
2017-11-15T04:35:31.599Z,5.60
2017-11-15T04:38:00.626Z,5.70
2017-11-15T04:40:28.916Z,5.70
2017-11-15T04:42:58.057Z,5.70
2017-11-15T04:45:26.339Z,5.70
2017-11-15T04:47:54.637Z,5.60
2017-11-15T04:50:22.950Z,5.60
2017-11-15T04:52:51.203Z,5.60
2017-11-15T04:55:20.199Z,5.60
2017-11-15T04:57:48.520Z,5.60
2017-11-15T05:00:16.816Z,5.70
2017-11-15T05:02:45.877Z,5.70
2017-11-15T05:05:14.212Z,5.70
2017-11-15T05:07:42.498Z,5.80
2017-11-15T05:10:11.622Z,5.70
2017-11-15T05:12:39.928Z,5.70
2017-11-15T05:15:08.235Z,5.60
2017-11-15T05:17:37.389Z,5.60
2017-11-15T05:20:06.241Z,5.60
2017-11-15T05:22:34.849Z,5.60
2017-11-15T05:25:03.986Z,5.60
2017-11-15T05:27:41.733Z,5.60
2017-11-15T05:30:10.200Z,5.60
2017-11-15T05:32:38.494Z,5.70
2017-11-15T05:35:06.756Z,5.70
2017-11-15T05:37:35.170Z,5.90
2017-11-15T05:40:04.201Z,5.70
2017-11-15T05:42:32.445Z,5.70
2017-11-15T05:45:00.756Z,5.60
2017-11-15T05:47:28.988Z,5.80
2017-11-15T05:49:57.242Z,6.10
2017-11-15T05:52:25.663Z,6.00
2017-11-15T05:54:54.676Z,5.90
2017-11-15T05:57:22.929Z,5.90
2017-11-15T05:59:52.054Z,5.90
2017-11-15T06:02:20.365Z,5.80
2017-11-15T06:04:48.617Z,5.80
2017-11-15T06:07:16.925Z,5.80
2017-11-15T06:09:45.191Z,5.90
2017-11-15T06:12:13.553Z,5.80
2017-11-15T06:14:41.964Z,5.70
2017-11-15T06:17:10.218Z,5.70
2017-11-15T06:19:38.626Z,5.70
2017-11-15T06:22:07.793Z,5.60
2017-11-15T06:24:36.202Z,5.60
2017-11-15T06:27:05.164Z,5.80
2017-11-15T06:29:33.618Z,5.80
2017-11-15T06:32:01.947Z,5.70
2017-11-15T06:34:32.619Z,5.80
2017-11-15T06:37:01.902Z,5.80
2017-11-15T06:39:30.121Z,5.80
2017-11-15T06:41:58.379Z,5.90
2017-11-15T06:44:26.807Z,6.00
2017-11-15T06:46:55.441Z,6.00
2017-11-15T06:49:28.243Z,6.10
2017-11-15T06:52:07.647Z,5.90
2017-11-15T06:54:37.067Z,6.10
2017-11-15T06:57:05.656Z,6.10
2017-11-15T06:59:34.020Z,6.10
2017-11-15T07:02:04.069Z,6.30
2017-11-15T07:04:33.713Z,6.30
2017-11-15T07:07:03.564Z,6.10
2017-11-15T07:09:33.496Z,6.10
2017-11-15T07:12:02.590Z,6.20
2017-11-15T07:14:31.388Z,6.10
2017-11-15T07:16:59.673Z,6.40
2017-11-15T07:19:30.373Z,7.00
2017-11-15T07:21:58.878Z,7.10
2017-11-15T07:24:31.590Z,6.90
2017-11-15T07:27:00.653Z,6.80
2017-11-15T07:29:29.769Z,6.80
2017-11-15T07:32:00.389Z,6.50
2017-11-15T07:34:33.398Z,6.70
2017-11-15T07:37:03.024Z,6.90
2017-11-15T07:39:34.624Z,6.80
2017-11-15T07:42:03.225Z,6.70
2017-11-15T07:44:34.725Z,6.40
2017-11-15T07:47:03.893Z,6.40
2017-11-15T07:49:33.817Z,6.50
2017-11-15T07:52:03.239Z,6.70
2017-11-15T07:54:33.494Z,6.70
2017-11-15T07:57:02.346Z,6.50
2017-11-15T07:59:31.275Z,6.60
2017-11-15T08:02:00.737Z,6.40
2017-11-15T08:04:30.070Z,6.40
2017-11-15T08:06:59.220Z,6.50
2017-11-15T08:09:28.534Z,6.40
2017-11-15T08:11:58.307Z,6.40
2017-11-15T08:14:27.287Z,7.10
2017-11-15T08:16:55.598Z,7.20
2017-11-15T08:19:25.516Z,7.30
2017-11-15T08:21:55.191Z,6.90
2017-11-15T08:24:24.520Z,6.90
2017-11-15T08:26:53.076Z,6.70
2017-11-15T08:29:25.831Z,6.60
2017-11-15T08:31:55.694Z,6.50
2017-11-15T08:34:27.026Z,6.50
2017-11-15T08:36:56.512Z,6.50
2017-11-15T08:39:26.162Z,6.50
2017-11-15T08:41:55.077Z,6.60
2017-11-15T08:44:23.778Z,6.50
2017-11-15T08:46:52.084Z,6.70
2017-11-15T08:49:34.668Z,6.60
2017-11-15T08:52:06.656Z,6.60
2017-11-15T08:54:36.277Z,6.60
2017-11-15T08:57:05.388Z,6.70
2017-11-15T08:59:35.861Z,7.30
2017-11-15T09:02:07.527Z,7.30
2017-11-15T09:04:42.472Z,7.20
2017-11-15T09:07:11.499Z,6.90
2017-11-15T09:09:41.031Z,6.70
2017-11-15T09:12:10.361Z,7.20
2017-11-15T09:14:38.925Z,6.90
2017-11-15T09:17:07.708Z,6.80
2017-11-15T09:19:37.579Z,6.90
2017-11-15T09:22:07.389Z,6.80
2017-11-15T09:24:36.645Z,6.90
2017-11-15T09:27:04.950Z,6.90
2017-11-15T09:29:33.408Z,7.10
2017-11-15T09:32:01.687Z,7.00
2017-11-15T09:34:30.165Z,7.00
2017-11-15T09:36:58.764Z,6.90
2017-11-15T09:39:27.419Z,6.90
2017-11-15T09:41:55.852Z,6.90
2017-11-15T09:44:26.881Z,6.90
2017-11-15T09:46:56.017Z,7.00
2017-11-15T09:49:24.570Z,6.90
2017-11-15T09:51:55.136Z,7.20
2017-11-15T09:54:23.662Z,7.20
2017-11-15T09:56:52.660Z,7.10
2017-11-15T09:59:21.369Z,7.50
2017-11-15T10:01:50.140Z,7.40
2017-11-15T10:04:18.796Z,7.40
2017-11-15T10:06:47.432Z,7.30
2017-11-15T10:09:17.648Z,7.30
2017-11-15T10:11:46.351Z,7.30
2017-11-15T10:14:15.416Z,7.50
2017-11-15T10:16:44.700Z,7.80
2017-11-15T10:19:13.873Z,7.70
2017-11-15T10:21:42.606Z,7.70
2017-11-15T10:24:11.881Z,7.90
2017-11-15T10:26:40.519Z,7.80
2017-11-15T10:29:10.494Z,8.30
2017-11-15T10:31:39.579Z,8.50
2017-11-15T10:34:08.831Z,8.40
2017-11-15T10:36:39.674Z,8.40
2017-11-15T10:39:09.206Z,8.40
2017-11-15T10:41:38.566Z,8.20
2017-11-15T10:44:08.589Z,8.40
2017-11-15T10:46:37.371Z,8.40
2017-11-15T10:49:05.644Z,8.40
2017-11-15T10:51:34.881Z,8.20
2017-11-15T10:54:03.806Z,8.10
2017-11-15T10:56:32.791Z,8.00
2017-11-15T10:59:01.189Z,7.90
2017-11-15T11:01:29.591Z,8.00
2017-11-15T11:03:59.152Z,8.20
2017-11-15T11:06:29.526Z,8.10
2017-11-15T11:08:59.170Z,8.10
2017-11-15T11:11:28.048Z,8.10
2017-11-15T11:13:57.653Z,8.20
2017-11-15T11:16:26.004Z,8.30
2017-11-15T11:18:54.441Z,8.30
2017-11-15T11:21:23.550Z,8.50
2017-11-15T11:23:53.696Z,8.50
2017-11-15T11:26:22.543Z,8.40
2017-11-15T11:28:52.002Z,8.20
2017-11-15T11:31:21.414Z,8.20
2017-11-15T11:33:49.995Z,8.30
2017-11-15T11:36:19.329Z,8.30
2017-11-15T11:38:49.367Z,8.30
2017-11-15T11:41:19.275Z,8.20
2017-11-15T11:43:48.989Z,8.30
2017-11-15T11:46:19.684Z,8.60
2017-11-15T11:48:49.458Z,8.60
2017-11-15T11:51:17.747Z,8.30
2017-11-15T11:53:46.231Z,8.40
2017-11-15T11:56:14.867Z,8.50
2017-11-15T11:58:47.496Z,8.80
2017-11-15T12:01:16.516Z,8.70
2017-11-15T12:03:46.385Z,8.50
2017-11-15T12:06:16.037Z,8.50
2017-11-15T12:08:44.351Z,8.50
2017-11-15T12:11:13.148Z,8.50
2017-11-15T12:13:43.699Z,8.50
2017-11-15T12:16:14.236Z,8.40
2017-11-15T12:18:43.320Z,8.40
2017-11-15T12:21:11.797Z,8.40
2017-11-15T12:23:41.606Z,8.50
2017-11-15T12:26:10.815Z,8.80
2017-11-15T12:28:40.121Z,8.60
2017-11-15T12:31:09.830Z,8.80
2017-11-15T12:33:38.345Z,8.80
2017-11-15T12:36:06.790Z,8.60
2017-11-15T12:38:35.387Z,8.70
2017-11-15T12:41:04.731Z,8.90
2017-11-15T12:43:34.208Z,8.70
2017-11-15T12:46:02.973Z,8.60
2017-11-15T12:48:31.760Z,8.60
2017-11-15T12:51:00.289Z,8.70
2017-11-15T12:53:29.492Z,8.70
2017-11-15T12:55:57.877Z,8.60
2017-11-15T12:58:26.406Z,8.60
2017-11-15T13:00:55.065Z,8.70
2017-11-15T13:03:24.512Z,8.80
2017-11-15T13:05:53.139Z,8.70
2017-11-15T13:08:22.061Z,8.80
2017-11-15T13:10:51.643Z,8.70
2017-11-15T13:13:23.349Z,8.90
2017-11-15T13:15:56.134Z,8.60
2017-11-15T13:18:33.702Z,8.60
2017-11-15T13:21:03.425Z,8.60
2017-11-15T13:23:32.256Z,8.60
2017-11-15T13:26:00.837Z,8.60
2017-11-15T13:28:30.335Z,8.60
2017-11-15T13:30:59.404Z,8.80
2017-11-15T13:33:28.914Z,8.70
2017-11-15T13:35:58.874Z,8.70
2017-11-15T13:38:29.427Z,8.80
2017-11-15T13:41:08.304Z,8.80
2017-11-15T13:43:37.857Z,8.70
2017-11-15T13:46:10.364Z,8.70
2017-11-15T13:48:40.583Z,8.50
2017-11-15T13:51:11.098Z,8.60
2017-11-15T13:53:40.164Z,8.70
2017-11-15T13:56:09.022Z,8.80
2017-11-15T13:58:38.752Z,8.80
2017-11-15T14:01:07.060Z,8.80
2017-11-15T14:03:39.717Z,8.80
2017-11-15T14:06:08.579Z,8.70
2017-11-15T14:08:38.913Z,8.70
2017-11-15T14:11:11.220Z,8.80
2017-11-15T14:13:41.939Z,8.80
2017-11-15T14:16:10.481Z,8.80
2017-11-15T14:18:40.113Z,8.70
2017-11-15T14:21:09.682Z,8.70
2017-11-15T14:23:39.861Z,8.80
2017-11-15T14:26:09.186Z,8.80
2017-11-15T14:28:38.377Z,8.70
2017-11-15T14:31:08.962Z,8.70
2017-11-15T14:33:37.261Z,8.80
2017-11-15T14:36:05.945Z,8.70
2017-11-15T14:38:34.679Z,9.00
2017-11-15T14:41:03.783Z,9.50
2017-11-15T14:43:32.407Z,9.50
2017-11-15T14:46:00.965Z,9.60
2017-11-15T14:48:29.783Z,9.70
2017-11-15T14:50:59.027Z,9.90
2017-11-15T14:53:30.132Z,10.00
2017-11-15T14:55:58.741Z,10.00
2017-11-15T14:58:27.084Z,10.00
2017-11-15T15:00:55.714Z,10.10
2017-11-15T15:03:25.713Z,10.10
2017-11-15T15:05:54.867Z,10.10
2017-11-15T15:08:25.092Z,10.10
2017-11-15T15:10:53.465Z,10.10
2017-11-15T15:13:22.964Z,10.10
2017-11-15T15:15:51.700Z,10.10
2017-11-15T15:18:20.398Z,10.10
2017-11-15T15:20:50.920Z,10.20
2017-11-15T15:23:20.641Z,10.20
2017-11-15T15:25:48.925Z,10.20
2017-11-15T15:28:18.173Z,10.20
2017-11-15T15:30:46.878Z,10.20
2017-11-15T15:33:18.740Z,10.20
2017-11-15T15:35:47.076Z,10.30
2017-11-15T15:38:16.529Z,10.10
2017-11-15T15:40:45.881Z,9.90
2017-11-15T15:43:14.513Z,9.80
2017-11-15T15:45:42.833Z,9.60
2017-11-15T15:48:11.495Z,9.50
2017-11-15T15:50:40.923Z,9.70
2017-11-15T15:53:10.354Z,9.70
2017-11-15T15:55:38.711Z,9.80
2017-11-15T15:58:07.026Z,9.70
2017-11-15T16:00:35.823Z,9.70
2017-11-15T16:03:05.087Z,9.20
2017-11-15T16:05:34.092Z,9.20
2017-11-15T16:08:02.417Z,9.10
2017-11-15T16:10:30.855Z,9.00
2017-11-15T16:12:59.279Z,8.90
2017-11-15T16:15:27.738Z,9.20
2017-11-15T16:17:56.806Z,9.10
2017-11-15T16:20:25.537Z,9.10
2017-11-15T16:22:54.228Z,8.90
2017-11-15T16:25:22.735Z,9.10
2017-11-15T16:27:51.211Z,9.40
2017-11-15T16:30:19.677Z,9.40
2017-11-15T16:32:48.242Z,9.00
2017-11-15T16:35:17.603Z,9.10
2017-11-15T16:37:47.027Z,9.10
2017-11-15T16:40:16.162Z,8.70
2017-11-15T16:42:45.306Z,8.70
2017-11-15T16:45:15.326Z,8.70
2017-11-15T16:47:45.384Z,8.60
2017-11-15T16:50:27.162Z,8.60
2017-11-15T16:52:58.391Z,8.60
2017-11-15T16:55:28.887Z,8.90
2017-11-15T16:57:57.496Z,8.90
2017-11-15T17:00:27.096Z,9.30
2017-11-15T17:02:56.788Z,9.00
2017-11-15T17:05:26.664Z,8.80
2017-11-15T17:07:55.466Z,8.70
2017-11-15T17:10:25.278Z,8.80
2017-11-15T17:12:53.853Z,8.60
2017-11-15T17:15:22.337Z,8.80
2017-11-15T17:17:51.327Z,9.00
2017-11-15T17:20:20.437Z,9.30
2017-11-15T17:22:50.047Z,9.30
2017-11-15T17:25:22.472Z,9.30
2017-11-15T17:27:53.094Z,9.40
2017-11-15T17:30:23.472Z,9.50
2017-11-15T17:33:03.667Z,9.50
2017-11-15T17:35:32.069Z,9.50
2017-11-15T17:38:01.166Z,8.60
2017-11-15T17:40:29.541Z,8.50
2017-11-15T17:42:58.074Z,8.40
2017-11-15T17:45:26.401Z,8.40
2017-11-15T17:47:54.709Z,8.30
2017-11-15T17:50:23.061Z,8.20
2017-11-15T17:52:51.343Z,8.40
2017-11-15T17:55:19.635Z,8.50
2017-11-15T17:57:48.035Z,8.20
2017-11-15T18:00:16.322Z,8.00
2017-11-15T18:02:44.600Z,8.00
2017-11-15T18:05:12.902Z,8.00
2017-11-15T18:07:42.045Z,8.30
2017-11-15T18:10:10.354Z,8.30
2017-11-15T18:12:39.508Z,7.90
2017-11-15T18:15:07.791Z,7.90
2017-11-15T18:17:36.061Z,7.70
2017-11-15T18:20:04.656Z,7.70
2017-11-15T18:22:32.962Z,8.30
2017-11-15T18:25:01.300Z,8.40
2017-11-15T18:27:29.636Z,8.40
2017-11-15T18:29:57.900Z,8.40
2017-11-15T18:32:26.203Z,8.40
2017-11-15T18:34:54.580Z,8.20
2017-11-15T18:37:22.905Z,8.30
2017-11-15T18:39:51.188Z,8.40
2017-11-15T18:42:19.498Z,8.40
2017-11-15T18:44:48.611Z,8.70
2017-11-15T18:47:16.953Z,8.60
2017-11-15T18:49:45.316Z,8.80
2017-11-15T18:52:13.633Z,8.60
2017-11-15T18:54:42.091Z,8.60
2017-11-15T18:57:11.391Z,8.50
2017-11-15T18:59:39.752Z,8.40
2017-11-15T19:02:08.161Z,8.70
2017-11-15T19:04:36.711Z,8.60
2017-11-15T19:07:05.148Z,8.50
2017-11-15T19:09:33.452Z,8.30
2017-11-15T19:12:01.790Z,8.20
2017-11-15T19:14:30.099Z,8.10
2017-11-15T19:16:58.456Z,8.40
2017-11-15T19:19:26.766Z,8.50
2017-11-15T19:21:55.140Z,8.60
2017-11-15T19:24:23.497Z,8.30
2017-11-15T19:26:52.609Z,7.60
2017-11-15T19:29:20.937Z,7.40
2017-11-15T19:31:49.370Z,7.60
2017-11-15T19:34:17.740Z,7.90
2017-11-15T19:36:46.097Z,7.40
2017-11-15T19:39:14.657Z,8.00
2017-11-15T19:41:43.795Z,8.20
2017-11-15T19:44:12.366Z,8.20
2017-11-15T19:46:40.697Z,8.00
2017-11-15T19:49:09.888Z,8.00
2017-11-15T19:51:39.065Z,8.00
2017-11-15T19:54:07.554Z,8.10
2017-11-15T19:56:36.022Z,8.20
2017-11-15T19:59:04.363Z,8.00
2017-11-15T20:01:32.636Z,8.00
2017-11-15T20:04:01.155Z,8.20
2017-11-15T20:06:33.320Z,8.30
2017-11-15T20:09:01.669Z,8.20
2017-11-15T20:11:30.052Z,8.10
2017-11-15T20:14:00.465Z,8.20
2017-11-15T20:16:28.907Z,8.20
2017-11-15T20:18:57.242Z,8.30
2017-11-15T20:21:25.956Z,8.10
2017-11-15T20:23:54.895Z,8.30
2017-11-15T20:26:24.962Z,8.10
2017-11-15T20:28:55.072Z,8.10
2017-11-15T20:31:23.416Z,8.00
2017-11-15T20:33:54.194Z,8.10
2017-11-15T20:36:22.812Z,8.10
2017-11-15T20:38:53.142Z,8.30
2017-11-15T20:41:25.564Z,8.30
2017-11-15T20:43:54.375Z,8.30
2017-11-15T20:46:22.755Z,8.30
2017-11-15T20:48:51.040Z,8.30
2017-11-15T20:51:20.904Z,8.30
2017-11-15T20:53:49.255Z,8.20
2017-11-15T20:56:17.551Z,8.50
2017-11-15T20:58:46.354Z,8.40
2017-11-15T21:01:14.807Z,8.30
2017-11-15T21:03:43.306Z,8.20
2017-11-15T21:06:11.624Z,8.30
2017-11-15T21:08:40.730Z,8.40
2017-11-15T21:11:10.696Z,8.40
2017-11-15T21:13:39.125Z,8.40
2017-11-15T21:16:09.150Z,8.40
2017-11-15T21:18:38.313Z,8.50
2017-11-15T21:21:06.917Z,8.40
2017-11-15T21:23:35.259Z,8.50
2017-11-15T21:26:03.711Z,8.50
2017-11-15T21:28:32.615Z,8.30
2017-11-15T21:31:02.043Z,8.00
2017-11-15T21:33:31.758Z,8.30
2017-11-15T21:36:00.518Z,8.30
2017-11-15T21:38:28.967Z,8.50
2017-11-15T21:41:00.773Z,8.50
2017-11-15T21:43:29.180Z,8.20
2017-11-15T21:45:57.707Z,8.00
2017-11-15T21:48:26.637Z,7.80
2017-11-15T21:50:55.082Z,7.80
2017-11-15T21:53:29.179Z,8.00
2017-11-15T21:55:59.014Z,7.70
2017-11-15T21:58:27.338Z,7.70
2017-11-15T22:00:57.244Z,8.10
2017-11-15T22:03:26.025Z,8.10
2017-11-15T22:05:54.564Z,8.00
2017-11-15T22:08:23.455Z,8.20
2017-11-15T22:10:55.143Z,8.30
2017-11-15T22:13:26.516Z,8.40
2017-11-15T22:15:55.930Z,8.30
2017-11-15T22:18:26.672Z,8.30
2017-11-15T22:20:55.234Z,8.30
2017-11-15T22:23:24.572Z,8.00
2017-11-15T22:25:54.325Z,8.00
2017-11-15T22:28:22.816Z,7.90
2017-11-15T22:30:52.344Z,8.00
2017-11-15T22:33:24.258Z,8.30
2017-11-15T22:35:55.243Z,8.00
2017-11-15T22:38:25.398Z,7.90
2017-11-15T22:40:57.265Z,7.90
2017-11-15T22:43:27.672Z,7.70
2017-11-15T22:45:56.538Z,8.00
2017-11-15T22:48:27.046Z,7.80
2017-11-15T22:50:57.536Z,7.50
2017-11-15T22:53:33.379Z,7.50
2017-11-15T22:56:02.602Z,7.50
2017-11-15T22:58:31.369Z,7.40
2017-11-15T23:01:01.181Z,7.40
2017-11-15T23:03:34.443Z,7.30
2017-11-15T23:06:04.521Z,7.30
2017-11-15T23:08:33.281Z,7.20
2017-11-15T23:11:02.812Z,7.20
2017-11-15T23:13:32.333Z,7.00
2017-11-15T23:16:01.679Z,7.10
2017-11-15T23:18:30.611Z,7.20
2017-11-15T23:20:58.981Z,7.20
2017-11-15T23:23:27.382Z,7.00
2017-11-15T23:25:56.785Z,7.10
2017-11-15T23:28:26.265Z,7.20
2017-11-15T23:30:55.294Z,7.20
2017-11-15T23:33:25.600Z,7.10
2017-11-15T23:35:54.416Z,7.10
2017-11-15T23:38:22.755Z,7.10
2017-11-15T23:40:51.334Z,7.30
2017-11-15T23:43:21.327Z,7.30
2017-11-15T23:45:49.750Z,7.40
2017-11-15T23:48:18.634Z,7.40
2017-11-15T23:50:47.901Z,7.20
2017-11-15T23:53:23.165Z,7.10
2017-11-15T23:55:51.510Z,7.00
2017-11-15T23:58:20.004Z,7.10
